createdAt,value
2018-05-16T00:03:33.241Z,96839.75
2018-05-16T00:08:26.539Z,96839.03
2018-05-16T00:13:19.872Z,96839.32
2018-05-16T00:18:13.954Z,96842.20
2018-05-16T00:23:08.053Z,96838.33
2018-05-16T00:28:02.124Z,96843.45
2018-05-16T00:32:55.430Z,96847.38
2018-05-16T00:37:49.513Z,96855.50
2018-05-16T00:42:43.573Z,96850.97
2018-05-16T00:47:36.880Z,96858.16
2018-05-16T00:52:31.091Z,96866.03
2018-05-16T00:57:25.153Z,96852.82
2018-05-16T01:02:18.454Z,96847.19
2018-05-16T01:07:12.515Z,96839.58
2018-05-16T01:12:05.847Z,96842.61
2018-05-16T01:16:59.174Z,96836.34
2018-05-16T01:21:52.461Z,96831.63
2018-05-16T01:26:45.764Z,96829.71
2018-05-16T01:31:39.866Z,96828.30
2018-05-16T01:36:33.924Z,96823.16
2018-05-16T01:41:27.233Z,96823.70
2018-05-16T01:46:20.520Z,96818.72
2018-05-16T01:51:13.819Z,96816.73
2018-05-16T01:56:07.114Z,96813.89
2018-05-16T02:01:01.181Z,96813.41
2018-05-16T02:05:54.477Z,96814.30
2018-05-16T02:10:47.785Z,96816.47
2018-05-16T02:15:41.077Z,96823.59
2018-05-16T02:20:35.154Z,96821.63
2018-05-16T02:25:28.427Z,96809.95
2018-05-16T02:30:21.721Z,96806.53
2018-05-16T02:35:15.037Z,96791.76
2018-05-16T02:40:08.340Z,96793.43
2018-05-16T02:45:01.637Z,96791.42
2018-05-16T02:49:54.951Z,96787.83
2018-05-16T02:54:49.004Z,96793.50
2018-05-16T02:59:42.318Z,96788.19
2018-05-16T03:04:36.377Z,96795.54
2018-05-16T03:09:29.723Z,96791.82
2018-05-16T03:14:23.043Z,96790.16
2018-05-16T03:19:17.103Z,96800.02
2018-05-16T03:24:10.421Z,96793.77
2018-05-16T03:29:03.793Z,96774.84
2018-05-16T03:33:57.061Z,96767.73
2018-05-16T03:38:50.383Z,96766.84
2018-05-16T03:43:43.680Z,96772.91
2018-05-16T03:48:36.992Z,96777.63
2018-05-16T03:53:30.291Z,96782.19
2018-05-16T03:58:41.990Z,96780.05
2018-05-16T04:03:52.795Z,96785.83
2018-05-16T04:08:46.132Z,96785.06
2018-05-16T04:13:39.447Z,96792.37
2018-05-16T04:18:33.538Z,96782.28
2018-05-16T04:23:27.640Z,96780.27
2018-05-16T04:28:21.695Z,96782.94
2018-05-16T04:33:14.997Z,96780.98
2018-05-16T04:38:09.043Z,96781.20
2018-05-16T04:43:02.350Z,96777.63
2018-05-16T04:47:55.634Z,96784.20
2018-05-16T04:52:48.986Z,96783.91
2018-05-16T04:57:43.026Z,96782.72
2018-05-16T05:02:37.092Z,96785.89
2018-05-16T05:07:30.405Z,96780.92
2018-05-16T05:12:24.458Z,96784.66
2018-05-16T05:17:17.768Z,96777.60
2018-05-16T05:22:11.843Z,96780.22
2018-05-16T05:27:05.143Z,96782.23
2018-05-16T05:31:58.453Z,96773.83
2018-05-16T05:36:51.800Z,96777.84
2018-05-16T05:41:45.903Z,96770.40
2018-05-16T05:46:39.958Z,96777.69
2018-05-16T05:51:33.259Z,96771.78
2018-05-16T05:56:27.350Z,96778.38
2018-05-16T06:01:21.420Z,96777.24
2018-05-16T06:06:14.730Z,96772.78
2018-05-16T06:11:08.804Z,96789.24
2018-05-16T06:16:02.886Z,96783.80
2018-05-16T06:20:56.201Z,96794.11
2018-05-16T06:25:50.291Z,96795.58
2018-05-16T06:30:44.356Z,96810.50
2018-05-16T06:35:37.691Z,96802.48
2018-05-16T06:40:30.973Z,96800.28
2018-05-16T06:45:24.267Z,96808.09
2018-05-16T06:50:17.604Z,96805.48
2018-05-16T06:55:10.904Z,96807.16
2018-05-16T07:00:04.199Z,96810.82
2018-05-16T07:04:57.516Z,96806.61
2018-05-16T07:09:50.813Z,96808.75
2018-05-16T07:14:44.897Z,96811.50
2018-05-16T07:19:38.942Z,96808.11
2018-05-16T07:24:32.262Z,96808.00
2018-05-16T07:29:25.576Z,96800.13
2018-05-16T07:34:18.895Z,96794.78
2018-05-16T07:39:12.223Z,96790.25
2018-05-16T07:44:05.528Z,96789.77
2018-05-16T07:48:58.825Z,96791.61
2018-05-16T07:53:52.139Z,96789.59
2018-05-16T07:58:46.187Z,96787.44
2018-05-16T08:03:39.494Z,96787.03
2018-05-16T08:08:34.332Z,96787.33
2018-05-16T08:13:27.596Z,96787.12
2018-05-16T08:18:20.889Z,96804.95
2018-05-16T08:23:14.212Z,96806.10
2018-05-16T08:28:07.635Z,96810.83
2018-05-16T08:33:01.724Z,96800.07
2018-05-16T08:37:55.014Z,96803.33
2018-05-16T08:42:48.306Z,96811.91
2018-05-16T08:47:41.602Z,96809.23
2018-05-16T08:52:34.921Z,96810.10
2018-05-16T08:57:28.239Z,96814.36
2018-05-16T09:02:21.545Z,96812.42
2018-05-16T09:07:14.891Z,96803.25
2018-05-16T09:12:08.174Z,96803.47
2018-05-16T09:17:01.509Z,96797.66
2018-05-16T09:21:55.558Z,96795.73
2018-05-16T09:26:48.871Z,96794.63
2018-05-16T09:31:42.155Z,96793.41
2018-05-16T09:36:36.236Z,96797.17
2018-05-16T09:41:29.536Z,96804.19
2018-05-16T09:46:23.612Z,96806.28
2018-05-16T09:51:16.906Z,96806.94
2018-05-16T09:56:11.007Z,96813.20
2018-05-16T10:01:05.093Z,96817.36
2018-05-16T10:05:59.131Z,96824.53
2018-05-16T10:10:52.423Z,96822.27
2018-05-16T10:15:45.803Z,96826.34
2018-05-16T10:20:39.095Z,96831.28
2018-05-16T10:25:32.405Z,96830.90
2018-05-16T10:30:26.470Z,96831.05
2018-05-16T10:35:19.772Z,96836.13
2018-05-16T10:40:13.837Z,96841.55
2018-05-16T10:45:07.135Z,96847.39
2018-05-16T10:50:01.204Z,96842.02
2018-05-16T10:54:54.474Z,96855.10
2018-05-16T10:59:47.770Z,96858.99
2018-05-16T11:04:41.094Z,96852.11
2018-05-16T11:09:34.421Z,96850.55
2018-05-16T11:14:27.723Z,96854.58
2018-05-16T11:19:21.050Z,96853.64
2018-05-16T11:24:15.188Z,96858.38
2018-05-16T11:29:09.256Z,96853.26
2018-05-16T11:34:04.191Z,96859.75
2018-05-16T11:38:57.525Z,96871.88
2018-05-16T11:43:50.825Z,96870.38
2018-05-16T11:48:44.185Z,96867.63
2018-05-16T11:53:37.444Z,96868.07
2018-05-16T11:58:30.718Z,96865.22
2018-05-16T12:03:24.014Z,96865.81
2018-05-16T12:08:17.341Z,96867.77
2018-05-16T12:13:11.406Z,96868.41
2018-05-16T12:18:04.690Z,96872.82
2018-05-16T12:22:57.987Z,96877.59
2018-05-16T12:27:52.124Z,96880.72
2018-05-16T12:32:45.426Z,96877.39
2018-05-16T12:37:38.764Z,96868.42
2018-05-16T12:42:32.058Z,96867.29
2018-05-16T12:47:25.342Z,96872.38
2018-05-16T12:52:18.668Z,96876.38
2018-05-16T12:57:12.706Z,96883.86
2018-05-16T13:02:06.006Z,96879.75
2018-05-16T13:12:22.186Z,96883.48
2018-05-16T13:17:16.226Z,96885.38
2018-05-16T13:22:09.583Z,96894.41
2018-05-16T13:27:02.892Z,96898.40
2018-05-16T13:31:56.200Z,96894.98
2018-05-16T13:36:49.825Z,96898.17
2018-05-16T13:41:43.155Z,96901.34
2018-05-16T13:46:36.456Z,96900.27
2018-05-16T13:51:30.516Z,96906.39
2018-05-16T13:56:23.815Z,96899.13
2018-05-16T14:01:17.899Z,96906.83
2018-05-16T14:06:11.212Z,96914.70
2018-05-16T14:11:04.506Z,96910.89
2018-05-16T14:15:57.790Z,96913.58
2018-05-16T14:20:51.096Z,96914.86
2018-05-16T14:25:44.392Z,96918.64
2018-05-16T14:30:37.737Z,96913.30
2018-05-16T14:35:31.043Z,96916.78
2018-05-16T14:40:24.343Z,96912.99
2018-05-16T14:45:18.418Z,96918.88
2018-05-16T14:50:11.724Z,96917.95
2018-05-16T14:55:05.031Z,96920.59
2018-05-16T14:59:58.315Z,96919.64
2018-05-16T15:04:51.603Z,96925.12
2018-05-16T15:09:44.918Z,96933.11
2018-05-16T15:14:38.983Z,96935.19
2018-05-16T15:19:32.290Z,96938.84
2018-05-16T15:24:26.335Z,96942.86
2018-05-16T15:29:19.652Z,96933.08
2018-05-16T15:34:13.712Z,96930.99
2018-05-16T15:39:06.994Z,96921.18
2018-05-16T15:44:00.302Z,96921.54
2018-05-16T15:48:54.379Z,96929.77
2018-05-16T15:53:47.683Z,96927.30
2018-05-16T15:58:41.763Z,96921.91
2018-05-16T16:03:35.048Z,96925.77
2018-05-16T16:08:29.158Z,96920.53
2018-05-16T16:13:22.480Z,96918.83
2018-05-16T16:18:15.851Z,96929.02
2018-05-16T16:23:09.158Z,96930.03
2018-05-16T16:28:02.474Z,96929.20
2018-05-16T16:32:55.779Z,96925.53
2018-05-16T16:37:49.090Z,96922.02
2018-05-16T16:42:42.484Z,96922.71
2018-05-16T16:47:36.553Z,96921.67
2018-05-16T16:52:29.868Z,96916.27
2018-05-16T16:57:23.956Z,96930.19
2018-05-16T17:02:18.021Z,96935.73
2018-05-16T17:07:11.336Z,96939.47
2018-05-16T17:12:05.428Z,96933.73
2018-05-16T17:16:58.742Z,96931.84
2018-05-16T17:21:55.117Z,96936.10
2018-05-16T17:26:48.455Z,96933.31
2018-05-16T17:31:42.518Z,96932.32
2018-05-16T17:36:36.583Z,96929.42
2018-05-16T17:41:29.911Z,96928.33
2018-05-16T17:46:23.239Z,96924.97
2018-05-16T17:51:16.551Z,96928.36
2018-05-16T17:56:10.617Z,96928.40
2018-05-16T18:01:03.931Z,96928.22
2018-05-16T18:05:57.235Z,96933.07
2018-05-16T18:10:50.551Z,96933.83
2018-05-16T18:16:01.492Z,96944.19
2018-05-16T18:20:54.706Z,96946.23
2018-05-16T18:25:48.037Z,96945.16
2018-05-16T18:30:41.417Z,96947.31
2018-05-16T18:35:34.757Z,96948.00
2018-05-16T18:40:28.104Z,96957.31
2018-05-16T18:45:21.448Z,96953.29
2018-05-16T18:50:14.745Z,96954.91
2018-05-16T18:55:08.105Z,96959.81
2018-05-16T19:00:01.410Z,96969.46
2018-05-16T19:04:55.523Z,96975.28
2018-05-16T19:09:48.829Z,96981.81
2018-05-16T19:14:42.906Z,96986.06
2018-05-16T19:19:36.251Z,96992.92
2018-05-16T19:24:29.555Z,96999.54
2018-05-16T19:29:22.860Z,97003.42
2018-05-16T19:34:16.945Z,97014.55
2018-05-16T19:39:10.256Z,97016.28
2018-05-16T19:44:03.564Z,97023.20
2018-05-16T19:48:56.873Z,97027.94
2018-05-16T19:53:50.194Z,97033.20
2018-05-16T19:58:43.507Z,97033.39
2018-05-16T20:03:37.627Z,97032.73
2018-05-16T20:08:31.697Z,97029.59
2018-05-16T20:13:25.061Z,97036.51
2018-05-16T20:18:18.335Z,97036.33
2018-05-16T20:23:11.682Z,97026.08
2018-05-16T20:28:04.991Z,97023.13
2018-05-16T20:33:00.004Z,97021.29
2018-05-16T20:37:53.346Z,97023.83
2018-05-16T20:42:47.197Z,97021.02
2018-05-16T20:47:40.829Z,97027.31
2018-05-16T20:52:34.188Z,97031.12
2018-05-16T20:57:28.275Z,97046.54
2018-05-16T21:02:22.366Z,97049.94
2018-05-16T21:07:16.537Z,97057.75
2018-05-16T21:12:09.847Z,97055.84
2018-05-16T21:17:03.993Z,97066.05
2018-05-16T21:21:57.291Z,97060.59
2018-05-16T21:26:50.601Z,97069.19
2018-05-16T21:31:44.670Z,97066.91
2018-05-16T21:36:37.975Z,97071.55
2018-05-16T21:41:32.042Z,97072.00
2018-05-16T21:46:25.339Z,97080.23
2018-05-16T21:51:19.402Z,97086.36
2018-05-16T21:56:12.717Z,97079.15
2018-05-16T22:01:06.816Z,97077.84
2018-05-16T22:06:00.888Z,97082.13
2018-05-16T22:10:54.192Z,97084.53
2018-05-16T22:15:48.254Z,97092.09
2018-05-16T22:20:41.557Z,97089.95
2018-05-16T22:25:35.709Z,97085.59
2018-05-16T22:30:34.404Z,97078.80
2018-05-16T22:35:33.110Z,97069.13
2018-05-16T22:40:31.818Z,97069.77
2018-05-16T22:50:49.822Z,97067.91
2018-05-16T22:55:43.127Z,97080.94
2018-05-16T23:00:37.182Z,97079.98
2018-05-16T23:05:30.492Z,97081.52
2018-05-16T23:10:23.788Z,97075.63
2018-05-16T23:15:17.847Z,97077.77
2018-05-16T23:20:11.165Z,97073.64
2018-05-16T23:25:04.472Z,97067.33
2018-05-16T23:29:57.794Z,97065.75
2018-05-16T23:34:51.178Z,97067.81
2018-05-16T23:39:45.253Z,97068.76
2018-05-16T23:44:38.564Z,97054.20
2018-05-16T23:49:32.712Z,97052.71
2018-05-16T23:54:26.721Z,97056.47
2018-05-16T23:59:20.810Z,97054.63
